createdAt,value
2022-12-31T00:00:00.412Z,84.23
2022-12-31T00:00:12.733Z,83.79
2022-12-31T00:00:24.720Z,83.79
2022-12-31T00:00:39.174Z,83.61
2022-12-31T00:00:51.236Z,83.57
2022-12-31T00:01:08.260Z,83.70
2022-12-31T00:01:22.510Z,83.72
2022-12-31T00:01:34.464Z,83.63
2022-12-31T00:01:46.547Z,83.47
2022-12-31T00:01:58.718Z,83.41
2022-12-31T00:02:10.858Z,83.42
2022-12-31T00:02:22.904Z,83.18
2022-12-31T00:02:35.516Z,83.16
2022-12-31T00:02:47.608Z,83.32
2022-12-31T00:02:59.744Z,83.25
2022-12-31T00:03:11.892Z,83.29
2022-12-31T00:03:26.017Z,83.38
2022-12-31T00:03:39.392Z,83.47
2022-12-31T00:03:51.751Z,83.68
2022-12-31T00:04:03.863Z,83.79
2022-12-31T00:04:15.962Z,83.83
2022-12-31T00:04:27.908Z,83.67
2022-12-31T00:04:39.845Z,83.57
2022-12-31T00:04:51.888Z,83.68
2022-12-31T00:05:04.499Z,83.75
2022-12-31T00:05:16.513Z,83.59
2022-12-31T00:05:31.530Z,83.39
2022-12-31T00:05:43.465Z,83.31
2022-12-31T00:05:55.437Z,83.20
2022-12-31T00:06:36.683Z,83.29
2022-12-31T00:06:48.610Z,83.02
2022-12-31T00:07:00.582Z,83.17
2022-12-31T00:07:12.526Z,83.06
2022-12-31T00:07:24.473Z,83.15
2022-12-31T00:07:47.841Z,82.95
2022-12-31T00:08:00.054Z,82.46
2022-12-31T00:08:12.032Z,82.61
2022-12-31T00:08:24.118Z,82.58
2022-12-31T00:08:36.048Z,82.69
2022-12-31T00:08:49.040Z,82.82
2022-12-31T00:09:04.140Z,83.04
2022-12-31T00:09:16.093Z,82.65
2022-12-31T00:09:28.029Z,82.46
2022-12-31T00:09:40.058Z,82.29
2022-12-31T00:09:51.968Z,82.17
2022-12-31T00:10:04.881Z,82.32
2022-12-31T00:10:17.008Z,82.42
2022-12-31T00:10:29.721Z,82.36
2022-12-31T00:10:41.869Z,82.31
2022-12-31T00:10:53.869Z,82.63
2022-12-31T00:11:08.768Z,82.59
2022-12-31T00:11:22.202Z,82.55
2022-12-31T00:11:36.179Z,82.21
2022-12-31T00:11:48.248Z,82.18
2022-12-31T00:12:00.219Z,82.14
2022-12-31T00:12:13.377Z,81.95
2022-12-31T00:12:25.650Z,81.97
2022-12-31T00:12:38.951Z,81.67
2022-12-31T00:12:51.063Z,81.25
2022-12-31T00:13:02.997Z,81.31
2022-12-31T00:13:17.878Z,81.25
2022-12-31T00:13:29.835Z,81.61
2022-12-31T00:13:46.469Z,81.46
2022-12-31T00:13:59.123Z,81.67
2022-12-31T00:14:11.032Z,81.61
2022-12-31T00:14:22.998Z,81.59
2022-12-31T00:14:34.964Z,81.48
2022-12-31T00:14:46.907Z,81.79
2022-12-31T00:14:58.858Z,81.67
2022-12-31T00:15:10.776Z,81.85
2022-12-31T00:15:22.753Z,81.92
2022-12-31T00:15:37.387Z,81.87
2022-12-31T00:15:49.308Z,81.88
2022-12-31T00:16:12.186Z,81.15
2022-12-31T00:16:28.406Z,81.04
2022-12-31T00:16:41.954Z,80.74
2022-12-31T00:16:56.354Z,80.78
2022-12-31T00:17:08.316Z,80.60
2022-12-31T00:17:20.279Z,80.55
2022-12-31T00:17:32.391Z,80.84
2022-12-31T00:17:44.453Z,81.32
2022-12-31T00:17:56.392Z,81.27
2022-12-31T00:18:08.793Z,81.54
2022-12-31T00:18:20.833Z,81.46
2022-12-31T00:18:32.766Z,81.31
2022-12-31T00:18:46.727Z,81.07
2022-12-31T00:19:00.299Z,81.17
2022-12-31T00:19:12.786Z,81.11
2022-12-31T00:19:24.706Z,81.10
2022-12-31T00:19:36.748Z,81.04
2022-12-31T00:19:48.713Z,80.92
2022-12-31T00:20:00.656Z,81.06
2022-12-31T00:20:12.732Z,80.95
2022-12-31T00:20:24.660Z,81.33
2022-12-31T00:20:41.802Z,81.08
2022-12-31T00:20:53.777Z,81.24
2022-12-31T00:21:09.770Z,81.26
2022-12-31T00:21:22.571Z,80.94
2022-12-31T00:21:35.560Z,80.89
2022-12-31T00:21:50.463Z,81.12
2022-12-31T00:22:02.424Z,81.28
2022-12-31T00:22:14.318Z,81.35
2022-12-31T00:22:26.285Z,81.38
2022-12-31T00:22:38.179Z,81.54
2022-12-31T00:22:50.064Z,81.49
2022-12-31T00:23:02.460Z,81.32
2022-12-31T00:23:14.423Z,81.60
2022-12-31T00:23:26.562Z,81.50
2022-12-31T00:23:38.671Z,81.62
2022-12-31T00:23:50.859Z,81.55
2022-12-31T00:24:04.389Z,81.61
2022-12-31T00:24:16.358Z,81.66
2022-12-31T00:24:31.025Z,81.59
2022-12-31T00:24:43.085Z,81.52
2022-12-31T00:24:54.988Z,81.65
2022-12-31T00:25:07.362Z,81.88
2022-12-31T00:25:21.459Z,82.30
2022-12-31T00:25:35.852Z,81.96
2022-12-31T00:25:47.753Z,82.06
2022-12-31T00:26:14.774Z,82.21
2022-12-31T00:26:29.193Z,81.92
2022-12-31T00:26:41.290Z,81.92
2022-12-31T00:26:53.231Z,81.58
2022-12-31T00:27:05.141Z,81.95
2022-12-31T00:27:17.064Z,82.27
2022-12-31T00:27:32.259Z,82.64
2022-12-31T00:27:44.402Z,82.50
2022-12-31T00:27:56.326Z,82.57
2022-12-31T00:28:08.278Z,82.81
2022-12-31T00:28:20.217Z,82.93
2022-12-31T00:28:32.920Z,83.02
2022-12-31T00:28:45.118Z,83.17
2022-12-31T00:28:59.294Z,83.32
2022-12-31T00:29:11.225Z,83.34
2022-12-31T00:29:23.492Z,82.81
2022-12-31T00:29:35.427Z,82.91
2022-12-31T00:29:47.361Z,82.64
2022-12-31T00:30:04.236Z,82.78
2022-12-31T00:30:17.002Z,82.74
2022-12-31T00:30:29.158Z,82.81
2022-12-31T00:30:41.263Z,82.90
2022-12-31T00:30:53.637Z,83.36
2022-12-31T00:31:08.512Z,83.33
2022-12-31T00:31:24.028Z,83.54
2022-12-31T00:31:38.154Z,83.64
2022-12-31T00:31:50.122Z,83.71
2022-12-31T00:32:02.067Z,83.62
2022-12-31T00:32:14.074Z,84.00
2022-12-31T00:32:28.402Z,84.19
2022-12-31T00:32:40.346Z,84.41
2022-12-31T00:32:53.146Z,84.46
2022-12-31T00:33:05.086Z,84.45
2022-12-31T00:33:17.074Z,84.43
2022-12-31T00:33:29.133Z,84.42
2022-12-31T00:33:41.849Z,84.32
2022-12-31T00:33:54.644Z,84.25
2022-12-31T00:34:07.169Z,83.90
2022-12-31T00:34:19.110Z,83.95
2022-12-31T00:34:31.213Z,84.11
2022-12-31T00:34:43.188Z,83.89
2022-12-31T00:34:55.126Z,83.87
2022-12-31T00:35:07.669Z,83.83
2022-12-31T00:35:19.573Z,83.66
2022-12-31T00:35:36.724Z,83.39
2022-12-31T00:35:48.868Z,83.19
2022-12-31T00:36:14.929Z,83.09
2022-12-31T00:36:29.715Z,82.72
2022-12-31T00:36:42.568Z,82.85
2022-12-31T00:36:54.526Z,82.56
2022-12-31T00:37:06.508Z,82.51
2022-12-31T00:37:18.407Z,82.88
2022-12-31T00:37:30.350Z,82.62
2022-12-31T00:37:42.250Z,82.64
2022-12-31T00:37:54.226Z,82.37
2022-12-31T00:38:08.508Z,82.29
2022-12-31T00:38:20.423Z,81.76
2022-12-31T00:38:32.383Z,81.70
2022-12-31T00:38:49.183Z,81.92
2022-12-31T00:39:02.920Z,81.74
2022-12-31T00:39:14.880Z,81.68
2022-12-31T00:39:26.830Z,81.34
2022-12-31T00:39:38.773Z,81.82
2022-12-31T00:39:51.082Z,81.67
2022-12-31T00:40:03.750Z,81.37
2022-12-31T00:40:15.860Z,81.29
2022-12-31T00:40:29.279Z,80.91
2022-12-31T00:40:41.164Z,80.34
2022-12-31T00:40:53.139Z,80.11
2022-12-31T00:41:05.644Z,79.93
2022-12-31T00:41:19.047Z,79.93
2022-12-31T00:41:31.187Z,79.72
2022-12-31T00:41:44.252Z,79.61
2022-12-31T00:41:56.376Z,79.71
2022-12-31T00:42:08.348Z,79.81
2022-12-31T00:42:20.335Z,79.94
2022-12-31T00:42:32.291Z,79.72
2022-12-31T00:42:44.235Z,79.92
2022-12-31T00:42:56.172Z,79.60
2022-12-31T00:43:08.076Z,79.58
2022-12-31T00:43:22.752Z,79.74
2022-12-31T00:43:35.106Z,79.68
2022-12-31T00:43:47.463Z,79.53
2022-12-31T00:43:59.574Z,79.75
2022-12-31T00:44:12.565Z,80.19
2022-12-31T00:44:24.487Z,80.18
2022-12-31T00:44:36.522Z,79.90
2022-12-31T00:44:50.917Z,79.58
2022-12-31T00:45:03.148Z,79.43
2022-12-31T00:45:15.258Z,79.36
2022-12-31T00:45:27.294Z,79.18
2022-12-31T00:45:39.317Z,78.87
2022-12-31T00:45:51.766Z,78.58
2022-12-31T00:46:05.560Z,78.74
2022-12-31T00:46:18.261Z,78.79
2022-12-31T00:46:31.740Z,78.96
2022-12-31T00:46:55.454Z,78.90
2022-12-31T00:47:07.705Z,78.32
2022-12-31T00:47:19.684Z,78.21
2022-12-31T00:47:31.680Z,78.13
2022-12-31T00:47:43.716Z,78.09
2022-12-31T00:47:55.886Z,78.35
2022-12-31T00:48:07.903Z,78.39
2022-12-31T00:48:20.169Z,78.30
2022-12-31T00:48:33.289Z,78.08
2022-12-31T00:48:46.434Z,77.92
2022-12-31T00:48:58.681Z,78.13
2022-12-31T00:49:11.248Z,78.15
2022-12-31T00:49:23.468Z,78.22
2022-12-31T00:49:35.605Z,77.69
2022-12-31T00:49:47.708Z,77.90
2022-12-31T00:49:59.882Z,77.90
2022-12-31T00:50:11.905Z,77.94
2022-12-31T00:50:24.053Z,77.79
2022-12-31T00:50:36.217Z,77.51
2022-12-31T00:50:48.286Z,77.22
2022-12-31T00:51:01.861Z,77.67
2022-12-31T00:51:16.022Z,77.46
2022-12-31T00:51:28.480Z,77.33
2022-12-31T00:51:40.563Z,77.27
2022-12-31T00:51:52.518Z,77.26
2022-12-31T00:52:04.765Z,76.96
2022-12-31T00:52:18.304Z,76.96
2022-12-31T00:52:30.192Z,77.04
2022-12-31T00:52:42.268Z,76.94
2022-12-31T00:52:54.239Z,76.89
2022-12-31T00:53:06.210Z,76.92
2022-12-31T00:53:18.265Z,76.76
2022-12-31T00:53:30.314Z,76.83
2022-12-31T00:53:42.451Z,77.33
2022-12-31T00:53:58.252Z,77.27
2022-12-31T00:54:10.191Z,77.51
2022-12-31T00:54:22.100Z,77.56
2022-12-31T00:54:34.220Z,77.27
2022-12-31T00:54:46.193Z,77.16
2022-12-31T00:54:58.123Z,77.20
2022-12-31T00:55:10.093Z,77.14
2022-12-31T00:55:21.976Z,77.32
2022-12-31T00:55:36.561Z,77.44
2022-12-31T00:55:48.553Z,77.48
2022-12-31T00:56:22.084Z,77.22
2022-12-31T00:56:34.034Z,77.51
2022-12-31T00:56:45.927Z,77.54
2022-12-31T00:56:57.969Z,77.68
2022-12-31T00:57:09.877Z,77.88
2022-12-31T00:57:21.873Z,77.84
2022-12-31T00:57:33.867Z,77.92
2022-12-31T00:57:46.210Z,77.80
2022-12-31T00:57:58.166Z,77.55
2022-12-31T00:58:10.057Z,77.61
2022-12-31T00:58:21.951Z,77.90
2022-12-31T00:58:35.794Z,77.92
2022-12-31T00:58:49.172Z,78.21
2022-12-31T00:59:01.558Z,78.43
2022-12-31T00:59:13.476Z,78.48
2022-12-31T00:59:25.596Z,78.20
2022-12-31T00:59:37.518Z,78.11
2022-12-31T00:59:49.400Z,78.11
2022-12-31T01:00:01.421Z,77.96
2022-12-31T01:00:15.203Z,77.85
2022-12-31T01:00:27.142Z,78.28
2022-12-31T01:00:40.188Z,78.06
2022-12-31T01:00:52.164Z,78.52
2022-12-31T01:01:10.015Z,78.53
2022-12-31T01:01:27.363Z,78.38
2022-12-31T01:01:40.215Z,78.55
2022-12-31T01:01:52.264Z,78.47
2022-12-31T01:02:04.905Z,78.60
2022-12-31T01:02:17.226Z,78.57
2022-12-31T01:02:29.550Z,78.72
2022-12-31T01:02:41.784Z,78.62
2022-12-31T01:02:54.108Z,78.63
2022-12-31T01:03:06.703Z,79.14
2022-12-31T01:03:19.951Z,79.44
2022-12-31T01:03:31.961Z,79.46
2022-12-31T01:03:44.719Z,79.78
2022-12-31T01:04:08.117Z,80.43
2022-12-31T01:04:21.414Z,80.33
2022-12-31T01:04:33.582Z,80.16
2022-12-31T01:04:45.609Z,80.19
2022-12-31T01:04:57.726Z,80.17
2022-12-31T01:05:09.765Z,80.02
2022-12-31T01:05:21.849Z,79.94
2022-12-31T01:05:34.922Z,79.99
2022-12-31T01:05:46.971Z,80.00
2022-12-31T01:05:59.145Z,80.32
2022-12-31T01:06:11.675Z,80.45
2022-12-31T01:06:23.889Z,80.34
2022-12-31T01:06:35.972Z,80.45
2022-12-31T01:06:48.289Z,80.16
2022-12-31T01:07:00.202Z,80.34
2022-12-31T01:07:12.140Z,80.48
2022-12-31T01:07:24.126Z,80.40
2022-12-31T01:07:38.089Z,80.23
2022-12-31T01:07:50.035Z,80.40
2022-12-31T01:08:02.928Z,80.54
2022-12-31T01:08:14.829Z,80.89
2022-12-31T01:08:26.798Z,80.92
2022-12-31T01:08:38.840Z,80.91
2022-12-31T01:08:55.166Z,80.86
2022-12-31T01:09:08.070Z,80.64
2022-12-31T01:09:21.082Z,80.74
2022-12-31T01:09:33.008Z,80.67
2022-12-31T01:09:44.914Z,80.86
2022-12-31T01:09:58.574Z,80.68
2022-12-31T01:10:10.691Z,80.66
2022-12-31T01:10:41.431Z,80.59
2022-12-31T01:11:15.266Z,80.85
2022-12-31T01:11:29.440Z,80.95
2022-12-31T01:11:41.947Z,80.48
2022-12-31T01:11:53.877Z,80.33
2022-12-31T01:12:06.171Z,80.49
2022-12-31T01:12:18.255Z,80.73
2022-12-31T01:12:30.360Z,80.73
2022-12-31T01:12:42.264Z,80.37
2022-12-31T01:12:54.234Z,80.57
2022-12-31T01:13:06.245Z,80.65
2022-12-31T01:13:18.197Z,80.55
2022-12-31T01:13:30.169Z,80.46
2022-12-31T01:13:42.145Z,80.50
2022-12-31T01:14:00.620Z,80.21
2022-12-31T01:14:18.251Z,80.45
2022-12-31T01:14:32.627Z,80.55
2022-12-31T01:14:44.664Z,80.58
2022-12-31T01:14:56.621Z,80.57
2022-12-31T01:15:08.789Z,80.70
2022-12-31T01:15:20.673Z,80.65
2022-12-31T01:15:35.400Z,80.54
2022-12-31T01:15:47.401Z,79.86
2022-12-31T01:16:06.792Z,79.89
2022-12-31T01:16:21.317Z,80.00
2022-12-31T01:16:37.051Z,80.22
2022-12-31T01:16:51.528Z,80.43
2022-12-31T01:17:03.479Z,80.49
2022-12-31T01:17:17.223Z,80.65
2022-12-31T01:17:29.440Z,80.65
2022-12-31T01:17:41.375Z,80.65
2022-12-31T01:17:53.297Z,80.66
2022-12-31T01:18:07.159Z,80.48
2022-12-31T01:18:19.078Z,80.49
2022-12-31T01:18:31.041Z,80.81
2022-12-31T01:18:43.191Z,80.67
2022-12-31T01:18:55.379Z,80.66
2022-12-31T01:19:11.082Z,80.51
2022-12-31T01:19:28.530Z,80.21
2022-12-31T01:19:43.041Z,80.48
2022-12-31T01:19:54.964Z,80.31
2022-12-31T01:20:07.495Z,80.41
2022-12-31T01:20:19.369Z,80.37
2022-12-31T01:20:35.082Z,80.22
2022-12-31T01:20:47.021Z,80.16
2022-12-31T01:21:03.123Z,80.23
2022-12-31T01:21:15.846Z,80.10
2022-12-31T01:21:28.998Z,79.97
2022-12-31T01:21:42.644Z,79.79
2022-12-31T01:21:55.729Z,79.71
2022-12-31T01:22:07.807Z,79.68
2022-12-31T01:22:19.778Z,79.67
2022-12-31T01:22:31.731Z,79.69
2022-12-31T01:22:43.723Z,79.80
2022-12-31T01:22:55.775Z,79.89
2022-12-31T01:23:09.131Z,79.85
2022-12-31T01:23:21.063Z,79.66
2022-12-31T01:23:33.455Z,79.54
2022-12-31T01:23:45.852Z,79.91
2022-12-31T01:23:59.301Z,79.98
2022-12-31T01:24:11.619Z,79.75
2022-12-31T01:24:23.906Z,80.00
2022-12-31T01:24:35.801Z,80.26
2022-12-31T01:24:47.697Z,80.21
2022-12-31T01:24:59.577Z,80.42
2022-12-31T01:25:11.473Z,80.18
2022-12-31T01:25:23.425Z,80.42
2022-12-31T01:25:39.500Z,80.14
2022-12-31T01:25:51.427Z,80.09
2022-12-31T01:26:05.499Z,79.91
2022-12-31T01:26:20.776Z,79.90
2022-12-31T01:26:32.882Z,80.05
2022-12-31T01:26:45.465Z,79.98
2022-12-31T01:26:57.845Z,79.64
2022-12-31T01:27:09.958Z,79.61
2022-12-31T01:27:23.967Z,79.58
2022-12-31T01:27:36.227Z,79.47
2022-12-31T01:27:48.145Z,79.52
2022-12-31T01:28:00.055Z,79.38
2022-12-31T01:28:12.246Z,78.99
2022-12-31T01:28:24.231Z,78.96
2022-12-31T01:28:37.004Z,78.98
2022-12-31T01:28:49.342Z,78.95
2022-12-31T01:29:01.421Z,78.71
2022-12-31T01:29:14.107Z,78.74
2022-12-31T01:29:26.538Z,78.88
2022-12-31T01:29:38.455Z,78.87
2022-12-31T01:29:50.334Z,79.03
2022-12-31T01:30:02.220Z,79.10
2022-12-31T01:30:14.101Z,79.25
2022-12-31T01:30:26.105Z,79.30
2022-12-31T01:30:39.844Z,79.21
2022-12-31T01:30:51.879Z,79.21
2022-12-31T01:31:10.809Z,78.98
2022-12-31T01:31:24.487Z,78.95
2022-12-31T01:31:37.831Z,78.87
2022-12-31T01:31:49.833Z,78.73
2022-12-31T01:32:01.775Z,78.57
2022-12-31T01:32:13.729Z,78.38
2022-12-31T01:32:25.655Z,78.30
2022-12-31T01:32:37.874Z,78.00
2022-12-31T01:32:49.757Z,77.98
2022-12-31T01:33:01.723Z,77.95
2022-12-31T01:33:13.701Z,77.88
2022-12-31T01:33:25.636Z,78.08
2022-12-31T01:33:38.330Z,78.14
2022-12-31T01:33:52.280Z,78.29
2022-12-31T01:34:05.384Z,77.86
2022-12-31T01:34:17.351Z,77.97
2022-12-31T01:34:29.327Z,77.98
2022-12-31T01:34:41.217Z,78.06
2022-12-31T01:34:53.156Z,77.90
2022-12-31T01:35:08.513Z,77.73
2022-12-31T01:35:20.560Z,77.58
2022-12-31T01:35:35.493Z,77.29
2022-12-31T01:35:47.504Z,77.40
2022-12-31T01:36:09.900Z,77.47
2022-12-31T01:36:27.662Z,77.37
2022-12-31T01:36:39.634Z,77.59
2022-12-31T01:36:51.597Z,77.74
2022-12-31T01:37:03.564Z,77.80
2022-12-31T01:37:15.543Z,77.82
2022-12-31T01:37:28.082Z,77.72
2022-12-31T01:37:39.973Z,77.56
2022-12-31T01:37:51.958Z,77.73
2022-12-31T01:38:04.101Z,77.58
2022-12-31T01:38:16.245Z,77.51
2022-12-31T01:38:28.564Z,77.38
2022-12-31T01:38:41.819Z,77.31
2022-12-31T01:38:56.950Z,77.14
2022-12-31T01:39:11.062Z,77.12
2022-12-31T01:39:23.063Z,77.07
2022-12-31T01:39:34.988Z,77.15
2022-12-31T01:39:46.900Z,77.08
2022-12-31T01:39:58.804Z,77.21
2022-12-31T01:40:11.155Z,76.97
2022-12-31T01:40:23.086Z,76.89
2022-12-31T01:40:39.420Z,77.15
2022-12-31T01:40:51.344Z,77.42
2022-12-31T01:41:04.348Z,77.13
2022-12-31T01:41:28.472Z,76.67
2022-12-31T01:41:43.012Z,76.81
2022-12-31T01:41:54.938Z,76.88
2022-12-31T01:42:11.803Z,76.59
2022-12-31T01:42:23.763Z,76.96
2022-12-31T01:42:35.960Z,77.32
2022-12-31T01:42:55.344Z,77.23
2022-12-31T01:43:20.022Z,77.15
2022-12-31T01:43:50.377Z,77.13
2022-12-31T01:44:11.179Z,76.85
2022-12-31T01:44:25.863Z,76.88
2022-12-31T01:44:40.631Z,77.13
2022-12-31T01:44:55.875Z,76.92
2022-12-31T01:45:11.385Z,76.82
2022-12-31T01:45:23.886Z,76.67
2022-12-31T01:45:35.886Z,76.76
2022-12-31T01:45:53.933Z,76.48
2022-12-31T01:46:05.893Z,76.58
2022-12-31T01:46:46.498Z,76.45
2022-12-31T01:47:02.236Z,76.68
2022-12-31T01:47:17.951Z,76.67
2022-12-31T01:47:42.111Z,76.91
2022-12-31T01:47:58.128Z,77.14
2022-12-31T01:48:14.018Z,77.39
2022-12-31T01:48:26.975Z,77.48
2022-12-31T01:48:39.002Z,77.48
2022-12-31T01:48:53.502Z,77.28
2022-12-31T01:49:20.402Z,77.05
2022-12-31T01:49:40.958Z,76.98
2022-12-31T01:49:59.146Z,77.09
2022-12-31T01:50:20.711Z,77.06
2022-12-31T01:50:36.048Z,76.92
2022-12-31T01:50:48.690Z,76.47
2022-12-31T01:51:00.771Z,76.41
2022-12-31T01:51:12.704Z,76.22
2022-12-31T01:51:29.796Z,76.30
2022-12-31T01:51:45.538Z,76.46
2022-12-31T01:52:05.051Z,76.82
2022-12-31T01:52:22.291Z,76.77
2022-12-31T01:52:41.296Z,76.76
2022-12-31T01:52:58.153Z,76.58
2022-12-31T01:53:11.615Z,76.55
2022-12-31T01:53:26.159Z,76.56
2022-12-31T01:53:40.832Z,76.51
2022-12-31T01:53:53.218Z,76.17
2022-12-31T01:54:08.669Z,76.05
2022-12-31T01:54:23.444Z,76.04
2022-12-31T01:54:40.065Z,76.06
2022-12-31T01:55:01.084Z,75.91
2022-12-31T01:55:25.193Z,75.71
2022-12-31T01:55:53.363Z,75.89
2022-12-31T01:56:06.745Z,75.92
2022-12-31T01:56:21.884Z,75.96
2022-12-31T01:56:36.069Z,75.67
2022-12-31T01:56:50.948Z,75.46
2022-12-31T01:57:05.151Z,75.63
2022-12-31T01:57:17.688Z,75.61
2022-12-31T01:57:30.898Z,75.47
2022-12-31T01:57:45.447Z,75.35
2022-12-31T01:58:04.327Z,75.46
2022-12-31T01:58:27.672Z,74.99
2022-12-31T01:58:45.816Z,74.80
2022-12-31T01:58:58.512Z,74.83
2022-12-31T01:59:13.187Z,74.91
2022-12-31T01:59:28.327Z,74.73
2022-12-31T01:59:40.971Z,74.53
2022-12-31T01:59:54.915Z,74.63
2022-12-31T02:00:08.201Z,74.45
2022-12-31T02:00:20.427Z,74.34
2022-12-31T02:00:33.091Z,74.45
2022-12-31T02:00:46.568Z,74.33
2022-12-31T02:00:59.686Z,74.26
2022-12-31T02:01:17.640Z,74.52
2022-12-31T02:01:32.075Z,74.39
2022-12-31T02:01:46.627Z,74.52
2022-12-31T02:02:00.154Z,74.43
2022-12-31T02:02:13.093Z,74.28
2022-12-31T02:02:27.457Z,73.70
2022-12-31T02:02:39.723Z,73.36
2022-12-31T02:02:51.985Z,73.26
2022-12-31T02:03:06.809Z,72.97
2022-12-31T02:03:21.467Z,72.62
2022-12-31T02:03:33.591Z,72.91
2022-12-31T02:03:45.665Z,72.85
2022-12-31T02:04:03.858Z,72.98
2022-12-31T02:04:16.532Z,72.84
2022-12-31T02:04:29.129Z,73.16
2022-12-31T02:04:41.405Z,73.21
2022-12-31T02:04:57.207Z,73.30
2022-12-31T02:05:41.788Z,73.34
2022-12-31T02:06:02.815Z,73.42
2022-12-31T02:06:21.523Z,73.50
2022-12-31T02:06:39.056Z,73.11
2022-12-31T02:06:58.282Z,73.02
2022-12-31T02:07:11.476Z,72.93
2022-12-31T02:07:23.917Z,72.72
2022-12-31T02:07:35.913Z,72.25
2022-12-31T02:07:48.506Z,71.94
2022-12-31T02:08:00.601Z,71.92
2022-12-31T02:08:12.866Z,71.78
2022-12-31T02:08:25.259Z,71.60
2022-12-31T02:08:41.976Z,71.79
2022-12-31T02:08:55.826Z,72.05
2022-12-31T02:09:08.357Z,72.11
2022-12-31T02:09:20.413Z,71.90
2022-12-31T02:09:33.698Z,72.06
2022-12-31T02:09:45.689Z,72.14
2022-12-31T02:09:57.899Z,71.98
2022-12-31T02:10:10.106Z,72.01
2022-12-31T02:10:25.289Z,71.90
2022-12-31T02:10:37.972Z,71.91
2022-12-31T02:10:49.975Z,71.86
2022-12-31T02:11:02.051Z,72.05
2022-12-31T02:11:24.967Z,71.96
2022-12-31T02:11:37.975Z,71.98
2022-12-31T02:11:50.060Z,72.10
2022-12-31T02:12:02.123Z,72.17
2022-12-31T02:12:14.640Z,72.06
2022-12-31T02:12:26.650Z,71.67
2022-12-31T02:12:39.472Z,71.53
2022-12-31T02:12:52.372Z,71.36
2022-12-31T02:13:04.712Z,71.27
2022-12-31T02:13:16.760Z,71.05
2022-12-31T02:13:28.738Z,71.05
2022-12-31T02:13:40.651Z,70.86
2022-12-31T02:13:58.302Z,71.00
2022-12-31T02:14:25.857Z,70.97
2022-12-31T02:14:42.373Z,70.59
2022-12-31T02:14:55.224Z,70.12
2022-12-31T02:15:07.927Z,70.06
2022-12-31T02:15:26.866Z,70.06
2022-12-31T02:16:03.638Z,69.86
2022-12-31T02:16:27.183Z,70.05
2022-12-31T02:17:11.249Z,69.78
2022-12-31T02:17:32.053Z,70.36
2022-12-31T02:18:04.404Z,70.67
2022-12-31T02:18:25.314Z,70.91
2022-12-31T02:18:51.125Z,70.63
2022-12-31T02:19:29.172Z,70.85
2022-12-31T02:20:08.814Z,71.01
2022-12-31T02:20:48.283Z,70.40
2022-12-31T02:21:24.761Z,70.51
2022-12-31T02:21:51.970Z,70.23
2022-12-31T02:22:41.631Z,70.27
2022-12-31T02:23:31.421Z,69.60
2022-12-31T02:23:52.385Z,69.60
2022-12-31T02:24:17.172Z,69.68
2022-12-31T02:25:04.614Z,69.67
2022-12-31T02:25:25.286Z,68.94
2022-12-31T02:25:56.253Z,69.28
2022-12-31T02:26:20.388Z,69.21
2022-12-31T02:27:03.589Z,69.47
2022-12-31T02:27:24.177Z,69.51
2022-12-31T02:28:00.460Z,69.24
2022-12-31T02:28:38.573Z,69.31
2022-12-31T02:29:11.771Z,68.86
2022-12-31T02:29:42.311Z,68.79
2022-12-31T02:30:12.867Z,68.55
2022-12-31T02:30:28.034Z,68.51
2022-12-31T02:30:42.148Z,68.77
2022-12-31T02:31:09.527Z,69.20
2022-12-31T02:31:28.463Z,68.84
2022-12-31T02:32:05.393Z,68.73
2022-12-31T02:32:35.407Z,68.29
2022-12-31T02:33:02.863Z,67.84
2022-12-31T02:33:20.722Z,68.46
2022-12-31T02:33:38.791Z,68.44
2022-12-31T02:34:11.637Z,68.24
2022-12-31T02:34:36.677Z,68.64
2022-12-31T02:34:54.367Z,69.13
2022-12-31T02:35:15.102Z,68.82
2022-12-31T02:35:46.663Z,69.00
2022-12-31T02:36:03.434Z,68.85
2022-12-31T02:36:20.710Z,68.74
2022-12-31T02:36:37.524Z,69.06
2022-12-31T02:36:51.805Z,68.82
2022-12-31T02:37:10.531Z,68.66
2022-12-31T02:37:25.669Z,68.96
2022-12-31T02:37:41.962Z,68.88
2022-12-31T02:38:01.443Z,69.02
2022-12-31T02:38:19.392Z,69.18
2022-12-31T02:38:35.668Z,69.03
2022-12-31T02:38:48.646Z,68.90
2022-12-31T02:39:02.844Z,68.63
2022-12-31T02:39:15.598Z,68.26
2022-12-31T02:39:29.226Z,68.16
2022-12-31T02:39:44.051Z,67.93
2022-12-31T02:39:57.512Z,68.05
2022-12-31T02:40:14.461Z,68.07
2022-12-31T02:40:26.994Z,67.96
2022-12-31T02:40:39.661Z,68.03
2022-12-31T02:40:53.893Z,68.42
2022-12-31T02:41:05.959Z,68.27
2022-12-31T02:41:37.718Z,68.13
2022-12-31T02:41:51.327Z,68.71
2022-12-31T02:42:03.465Z,68.78
2022-12-31T02:42:15.365Z,68.55
2022-12-31T02:42:27.311Z,68.62
2022-12-31T02:42:42.326Z,68.44
2022-12-31T02:42:55.770Z,68.06
2022-12-31T02:43:07.759Z,68.50
2022-12-31T02:43:19.960Z,68.73
2022-12-31T02:43:31.862Z,68.72
2022-12-31T02:43:47.330Z,68.54
2022-12-31T02:43:59.631Z,68.53
2022-12-31T02:44:41.700Z,68.54
2022-12-31T02:44:53.641Z,68.37
2022-12-31T02:45:06.724Z,68.29
2022-12-31T02:45:25.434Z,68.43
2022-12-31T02:45:41.166Z,68.45
2022-12-31T02:46:16.656Z,68.31
2022-12-31T02:46:41.115Z,67.70
2022-12-31T02:47:02.013Z,67.99
2022-12-31T02:47:28.851Z,68.11
2022-12-31T02:47:53.573Z,68.27
2022-12-31T02:48:23.900Z,68.15
2022-12-31T02:48:54.930Z,68.47
2022-12-31T02:49:57.784Z,68.87
2022-12-31T02:50:28.828Z,69.15
2022-12-31T02:51:12.230Z,69.04
2022-12-31T02:51:29.957Z,69.63
2022-12-31T02:51:56.274Z,69.24
2022-12-31T02:52:19.014Z,69.09
2022-12-31T02:52:58.682Z,69.28
2022-12-31T02:53:37.633Z,69.05
2022-12-31T02:54:11.936Z,69.36
2022-12-31T02:54:48.805Z,69.42
2022-12-31T02:55:25.742Z,69.15
2022-12-31T02:55:54.790Z,69.69
2022-12-31T02:56:28.418Z,69.20
2022-12-31T02:57:05.467Z,69.58
2022-12-31T02:58:01.480Z,69.43
2022-12-31T02:59:01.255Z,69.36
2022-12-31T03:00:19.477Z,69.49
2022-12-31T03:00:53.383Z,68.76
2022-12-31T03:01:23.901Z,68.55
2022-12-31T03:02:00.918Z,68.90
2022-12-31T03:02:19.222Z,68.80
2022-12-31T03:02:34.444Z,68.57
2022-12-31T03:02:48.795Z,68.91
2022-12-31T03:03:02.882Z,68.95
2022-12-31T03:03:14.916Z,68.92
2022-12-31T03:03:28.113Z,69.48
2022-12-31T03:03:40.640Z,69.49
2022-12-31T03:04:12.545Z,69.32
2022-12-31T03:04:32.295Z,69.68
2022-12-31T03:04:50.354Z,69.58
2022-12-31T03:05:03.693Z,69.60
2022-12-31T03:05:19.352Z,69.85
2022-12-31T03:05:36.199Z,69.56
2022-12-31T03:05:49.836Z,69.37
2022-12-31T03:06:04.514Z,69.55
2022-12-31T03:06:16.569Z,70.06
2022-12-31T03:06:28.828Z,70.08
2022-12-31T03:06:42.123Z,70.11
2022-12-31T03:06:54.356Z,69.80
2022-12-31T03:07:17.768Z,69.43
2022-12-31T03:07:33.139Z,69.23
2022-12-31T03:07:48.588Z,69.40
2022-12-31T03:08:00.716Z,68.92
2022-12-31T03:08:21.471Z,69.19
2022-12-31T03:08:53.508Z,69.25
2022-12-31T03:09:14.658Z,68.75
2022-12-31T03:09:26.543Z,68.51
2022-12-31T03:09:38.527Z,68.70
2022-12-31T03:09:51.272Z,68.27
2022-12-31T03:10:03.405Z,68.53
2022-12-31T03:10:15.648Z,68.54
2022-12-31T03:10:28.003Z,68.72
2022-12-31T03:10:40.006Z,68.46
2022-12-31T03:10:55.085Z,68.47
2022-12-31T03:11:26.957Z,68.35
2022-12-31T03:11:57.958Z,68.74
2022-12-31T03:12:30.464Z,68.99
2022-12-31T03:12:47.495Z,69.15
2022-12-31T03:12:59.569Z,69.31
2022-12-31T03:13:11.741Z,69.28
2022-12-31T03:13:24.518Z,69.61
2022-12-31T03:13:36.418Z,69.31
2022-12-31T03:13:48.384Z,69.25
2022-12-31T03:14:03.337Z,69.22
2022-12-31T03:14:15.405Z,69.20
2022-12-31T03:14:28.148Z,69.11
2022-12-31T03:14:40.143Z,69.40
2022-12-31T03:14:52.468Z,69.54
2022-12-31T03:15:06.613Z,69.76
2022-12-31T03:15:20.582Z,69.82
2022-12-31T03:15:37.264Z,69.52
2022-12-31T03:15:50.074Z,69.84
2022-12-31T03:16:02.097Z,69.92
2022-12-31T03:16:14.052Z,69.91
2022-12-31T03:16:26.080Z,69.82
2022-12-31T03:16:38.112Z,69.70
2022-12-31T03:16:50.095Z,69.78
2022-12-31T03:17:02.047Z,69.86
2022-12-31T03:17:14.049Z,69.99
2022-12-31T03:17:26.201Z,70.08
2022-12-31T03:17:38.142Z,69.99
2022-12-31T03:17:51.456Z,70.13
2022-12-31T03:18:10.389Z,69.66
2022-12-31T03:18:42.299Z,69.51
2022-12-31T03:19:12.979Z,69.18
2022-12-31T03:19:43.180Z,69.58
2022-12-31T03:20:13.433Z,70.44
2022-12-31T03:20:57.249Z,70.13
2022-12-31T03:21:31.749Z,70.33
2022-12-31T03:22:03.325Z,70.42
2022-12-31T03:22:27.483Z,70.48